createdAt,value
2023-03-20T00:02:07.199Z,32.23
2023-03-20T00:04:58.861Z,32.03
2023-03-20T00:07:47.120Z,32.93
2023-03-20T00:10:18.328Z,30.50
2023-03-20T00:12:48.564Z,30.33
2023-03-20T00:15:27.579Z,30.17
2023-03-20T00:17:55.769Z,31.37
2023-03-20T00:20:24.893Z,32.43
2023-03-20T00:22:54.569Z,31.23
2023-03-20T00:25:25.851Z,30.23
2023-03-20T00:27:54.014Z,33.60
2023-03-20T00:30:26.201Z,31.60
2023-03-20T00:32:54.361Z,34.93
2023-03-20T00:35:25.752Z,34.47
2023-03-20T00:37:54.591Z,41.83
2023-03-20T00:40:28.191Z,38.57
2023-03-20T00:43:00.684Z,36.17
2023-03-20T00:45:30.030Z,34.77
2023-03-20T00:47:58.646Z,34.43
2023-03-20T00:50:29.809Z,31.87
2023-03-20T00:52:58.644Z,31.60
2023-03-20T00:55:30.438Z,32.37
2023-03-20T00:58:01.723Z,33.10
2023-03-20T01:00:47.449Z,35.83
2023-03-20T01:03:18.897Z,37.13
2023-03-20T01:05:47.851Z,36.27
2023-03-20T01:08:17.511Z,33.60
2023-03-20T01:10:48.121Z,32.70
2023-03-20T01:13:21.971Z,33.10
2023-03-20T01:15:51.517Z,32.03
2023-03-20T01:18:21.045Z,35.67
2023-03-20T01:20:49.381Z,33.10
2023-03-20T01:23:17.462Z,31.87
2023-03-20T01:25:47.051Z,33.93
2023-03-20T01:28:18.349Z,38.10
2023-03-20T01:30:47.248Z,38.33
2023-03-20T01:33:17.341Z,34.70
2023-03-20T01:35:45.943Z,40.00
2023-03-20T01:38:16.346Z,37.70
2023-03-20T01:40:52.155Z,36.50
2023-03-20T01:43:22.037Z,35.37
2023-03-20T01:45:58.778Z,35.03
2023-03-20T01:48:36.741Z,34.73
2023-03-20T01:51:05.231Z,35.03
2023-03-20T01:53:33.085Z,35.20
2023-03-20T01:56:02.572Z,37.73
2023-03-20T01:58:37.439Z,36.80
2023-03-20T02:01:06.969Z,36.80
2023-03-20T02:03:35.218Z,37.43
2023-03-20T02:06:03.127Z,37.47
2023-03-20T02:08:32.945Z,38.40
2023-03-20T02:11:03.270Z,37.80
2023-03-20T02:13:32.735Z,37.03
2023-03-20T02:16:04.778Z,40.30
2023-03-20T02:18:33.380Z,40.33
2023-03-20T02:21:38.721Z,35.40
2023-03-20T02:24:37.316Z,36.17
2023-03-20T02:27:14.759Z,37.27
2023-03-20T02:30:19.225Z,38.13
2023-03-20T02:33:24.428Z,38.43
2023-03-20T02:36:27.742Z,36.97
2023-03-20T02:39:19.643Z,32.80
2023-03-20T02:41:54.425Z,33.40
2023-03-20T02:44:32.515Z,30.83
2023-03-20T02:47:04.672Z,31.30
2023-03-20T02:49:56.571Z,26.87
2023-03-20T02:52:33.981Z,28.93
2023-03-20T02:55:16.145Z,29.83
2023-03-20T02:57:52.660Z,26.73
2023-03-20T03:00:29.026Z,31.03
2023-03-20T03:03:06.953Z,29.60
2023-03-20T03:05:39.639Z,31.13
2023-03-20T03:08:10.852Z,30.60
2023-03-20T03:10:45.804Z,31.10
2023-03-20T03:13:17.139Z,32.67
2023-03-20T03:15:48.055Z,32.53
2023-03-20T03:18:20.052Z,32.73
2023-03-20T03:20:52.226Z,34.60
2023-03-20T03:23:26.546Z,33.50
2023-03-20T03:25:57.606Z,33.67
2023-03-20T03:28:31.021Z,32.23
2023-03-20T03:31:00.244Z,34.20
2023-03-20T03:33:31.233Z,30.10
2023-03-20T03:36:10.375Z,31.60
2023-03-20T03:38:44.658Z,29.23
2023-03-20T03:41:23.450Z,29.40
2023-03-20T03:43:58.853Z,30.30
2023-03-20T03:46:35.819Z,30.90
2023-03-20T03:49:05.555Z,33.33
2023-03-20T03:51:36.253Z,29.43
2023-03-20T03:54:11.977Z,31.50
2023-03-20T03:56:44.790Z,27.00
2023-03-20T03:59:18.834Z,25.37
2023-03-20T04:01:47.795Z,28.37
2023-03-20T04:04:17.036Z,32.13
2023-03-20T04:06:44.954Z,29.07
2023-03-20T04:09:12.871Z,30.10
2023-03-20T04:11:42.158Z,28.53
2023-03-20T04:14:10.026Z,30.17
2023-03-20T04:16:37.939Z,36.30
2023-03-20T04:19:05.913Z,39.53
2023-03-20T04:21:33.773Z,41.30
2023-03-20T04:24:01.621Z,42.60
2023-03-20T04:26:29.477Z,47.67
2023-03-20T04:28:58.754Z,50.77
2023-03-20T04:31:26.780Z,55.20
2023-03-20T04:33:54.744Z,56.47
2023-03-20T04:36:22.642Z,55.70
2023-03-20T04:38:50.786Z,41.83
2023-03-20T04:41:21.154Z,45.13
2023-03-20T04:43:51.358Z,36.27
2023-03-20T04:46:20.605Z,35.17
2023-03-20T04:48:48.501Z,40.17
2023-03-20T04:51:16.338Z,41.03
2023-03-20T04:53:44.282Z,41.87
2023-03-20T04:56:17.125Z,43.10
2023-03-20T04:58:51.001Z,42.17
2023-03-20T05:01:23.389Z,39.30
2023-03-20T05:03:52.142Z,38.23
2023-03-20T05:06:23.276Z,41.33
2023-03-20T05:08:54.593Z,42.60
2023-03-20T05:11:24.952Z,40.03
2023-03-20T05:13:53.102Z,41.67
2023-03-20T05:16:22.680Z,39.63
2023-03-20T05:18:50.595Z,38.37
2023-03-20T05:21:18.446Z,42.33
2023-03-20T05:23:46.251Z,35.00
2023-03-20T05:26:14.073Z,38.97
2023-03-20T05:28:41.947Z,31.87
2023-03-20T05:31:10.232Z,36.40
2023-03-20T05:33:40.059Z,26.80
2023-03-20T05:36:09.517Z,24.47
2023-03-20T05:38:37.443Z,21.20
2023-03-20T05:41:05.791Z,20.90
2023-03-20T05:43:33.624Z,24.80
2023-03-20T05:46:02.302Z,26.13
2023-03-20T05:48:30.681Z,26.33
2023-03-20T05:50:59.953Z,25.43
2023-03-20T05:53:27.786Z,22.73
2023-03-20T05:55:59.859Z,19.93
2023-03-20T05:58:29.947Z,19.50
2023-03-20T06:01:13.086Z,20.13
2023-03-20T06:03:58.816Z,18.33
2023-03-20T06:07:28.545Z,18.17
2023-03-20T06:13:02.761Z,17.03
2023-03-20T06:15:32.837Z,17.80
2023-03-20T06:18:09.210Z,17.83
2023-03-20T06:20:39.730Z,17.30
2023-03-20T06:23:10.634Z,18.77
2023-03-20T06:25:41.036Z,16.53
2023-03-20T06:28:08.923Z,16.43
2023-03-20T06:30:38.008Z,16.00
2023-03-20T06:33:20.547Z,15.47
2023-03-20T06:36:00.264Z,17.87
2023-03-20T06:41:35.790Z,18.50
2023-03-20T06:44:04.953Z,18.37
2023-03-20T06:46:32.954Z,17.27
2023-03-20T06:49:04.028Z,17.50
2023-03-20T06:51:32.777Z,17.10
2023-03-20T06:54:00.996Z,19.43
2023-03-20T06:56:28.851Z,20.43
2023-03-20T06:58:58.214Z,18.83
2023-03-20T07:01:26.222Z,20.57
2023-03-20T07:03:55.056Z,21.33
2023-03-20T07:06:23.350Z,22.47
2023-03-20T07:08:51.596Z,23.27
2023-03-20T07:11:19.793Z,25.03
2023-03-20T07:13:49.830Z,26.80
2023-03-20T07:16:19.375Z,27.83
2023-03-20T07:18:47.413Z,25.90
2023-03-20T07:21:19.922Z,27.97
2023-03-20T07:23:47.934Z,26.13
2023-03-20T07:26:16.163Z,26.20
2023-03-20T07:28:44.027Z,25.10
2023-03-20T07:31:23.042Z,25.93
2023-03-20T07:33:51.829Z,26.80
2023-03-20T07:36:19.770Z,27.40
2023-03-20T07:38:47.631Z,26.37
2023-03-20T07:41:15.772Z,24.53
2023-03-20T07:43:44.865Z,24.43
2023-03-20T07:46:12.930Z,23.60
2023-03-20T07:48:42.243Z,24.40
2023-03-20T07:51:10.093Z,23.77
2023-03-20T07:53:38.475Z,22.80
2023-03-20T07:56:10.048Z,22.33
2023-03-20T07:58:38.409Z,23.00
2023-03-20T08:01:07.092Z,20.58
2023-03-20T08:03:35.132Z,18.05
2023-03-20T08:06:06.450Z,15.85
2023-03-20T08:08:34.856Z,16.67
2023-03-20T08:11:03.790Z,17.55
2023-03-20T08:13:32.402Z,15.57
2023-03-20T08:16:00.305Z,15.65
2023-03-20T08:18:28.220Z,16.35
2023-03-20T08:20:56.218Z,15.23
2023-03-20T08:23:25.849Z,15.55
2023-03-20T08:25:55.268Z,17.38
2023-03-20T08:28:36.368Z,17.17
2023-03-20T08:31:11.985Z,17.20
2023-03-20T08:33:39.908Z,18.17
2023-03-20T08:36:09.002Z,18.23
2023-03-20T08:38:39.498Z,18.98
2023-03-20T08:41:08.391Z,15.35
2023-03-20T08:43:36.484Z,16.33
2023-03-20T08:46:05.030Z,16.25
2023-03-20T08:48:33.404Z,15.32
2023-03-20T08:51:01.988Z,20.90
2023-03-20T08:53:29.930Z,13.75
2023-03-20T08:55:59.284Z,14.68
2023-03-20T08:58:27.355Z,12.88
2023-03-20T09:00:55.440Z,11.35
2023-03-20T09:03:23.975Z,11.45
2023-03-20T09:05:52.795Z,12.18
2023-03-20T09:08:21.126Z,11.02
2023-03-20T09:10:52.119Z,11.50
2023-03-20T09:13:27.616Z,10.32
2023-03-20T09:15:56.930Z,11.75
2023-03-20T09:18:25.449Z,11.18
2023-03-20T09:20:53.802Z,17.80
2023-03-20T09:23:21.976Z,11.90
2023-03-20T09:25:49.918Z,11.90
2023-03-20T09:28:17.790Z,11.27
2023-03-20T09:30:47.079Z,13.00
2023-03-20T09:33:15.612Z,10.90
2023-03-20T09:35:44.116Z,12.00
2023-03-20T09:38:12.601Z,11.27
2023-03-20T09:40:52.360Z,11.50
2023-03-20T09:43:29.986Z,11.25
2023-03-20T09:46:11.928Z,11.23
2023-03-20T09:48:46.233Z,11.77
2023-03-20T09:51:22.784Z,12.48
2023-03-20T09:53:59.925Z,12.80
2023-03-20T09:56:31.858Z,12.05
2023-03-20T09:59:02.495Z,12.77
2023-03-20T10:01:39.678Z,12.23
2023-03-20T10:04:11.066Z,12.77
2023-03-20T10:06:39.807Z,13.43
2023-03-20T10:09:17.679Z,15.15
2023-03-20T10:12:16.519Z,12.75
2023-03-20T10:14:54.622Z,13.02
2023-03-20T10:17:34.139Z,12.90
2023-03-20T10:20:13.593Z,11.98
2023-03-20T10:22:46.414Z,12.45
2023-03-20T10:25:24.977Z,12.18
2023-03-20T10:27:59.148Z,12.55
2023-03-20T10:30:35.198Z,14.80
2023-03-20T10:33:22.211Z,14.40
2023-03-20T10:36:02.975Z,14.35
2023-03-20T10:38:41.667Z,13.95
2023-03-20T10:41:15.528Z,12.55
2023-03-20T10:43:45.705Z,13.18
2023-03-20T10:46:17.787Z,13.20
2023-03-20T10:48:50.617Z,15.38
2023-03-20T10:51:21.058Z,15.55
2023-03-20T10:53:53.255Z,12.80
2023-03-20T10:56:29.092Z,13.32
2023-03-20T10:59:03.516Z,13.63
2023-03-20T11:01:33.315Z,13.70
2023-03-20T11:04:03.766Z,13.93
2023-03-20T11:06:34.931Z,13.55
2023-03-20T11:09:13.632Z,13.85
2023-03-20T11:11:44.610Z,12.80
2023-03-20T11:14:24.976Z,13.30
2023-03-20T11:17:08.165Z,13.38
2023-03-20T11:19:49.687Z,13.95
2023-03-20T11:22:41.367Z,12.23
2023-03-20T11:25:44.163Z,12.88
2023-03-20T11:28:45.861Z,12.32
2023-03-20T11:31:27.410Z,13.15
2023-03-20T11:34:24.154Z,12.57
2023-03-20T11:37:10.248Z,12.48
2023-03-20T11:40:12.703Z,11.82
2023-03-20T11:43:03.218Z,11.18
2023-03-20T11:45:45.483Z,9.82
2023-03-20T11:48:27.928Z,12.07
2023-03-20T11:51:03.816Z,11.05
2023-03-20T11:53:36.224Z,10.98
2023-03-20T11:56:17.990Z,8.88
2023-03-20T11:59:04.117Z,9.90
2023-03-20T12:01:52.276Z,10.07
2023-03-20T12:04:38.375Z,10.57
2023-03-20T12:07:24.595Z,9.27
2023-03-20T12:10:07.013Z,9.40
2023-03-20T12:12:42.136Z,9.32
2023-03-20T12:15:19.672Z,8.23
2023-03-20T12:17:56.861Z,9.57
2023-03-20T12:20:34.057Z,7.07
2023-03-20T12:23:12.127Z,8.02
2023-03-20T12:25:48.277Z,8.93
2023-03-20T12:28:25.304Z,8.55
2023-03-20T12:31:05.428Z,6.80
2023-03-20T12:33:42.130Z,5.95
2023-03-20T12:36:16.576Z,6.90
2023-03-20T12:38:46.227Z,5.30
2023-03-20T12:41:17.581Z,5.25
2023-03-20T12:44:05.630Z,6.82
2023-03-20T12:46:43.067Z,4.63
2023-03-20T12:49:21.099Z,4.97
2023-03-20T12:52:00.584Z,5.35
2023-03-20T12:54:43.024Z,4.90
2023-03-20T12:57:22.797Z,5.18
2023-03-20T13:00:14.492Z,4.95
2023-03-20T13:02:51.085Z,5.07
2023-03-20T13:05:31.171Z,5.82
2023-03-20T13:08:19.423Z,5.47
2023-03-20T13:10:57.253Z,8.98
2023-03-20T13:13:33.400Z,4.25
2023-03-20T13:16:13.087Z,5.50
2023-03-20T13:18:55.519Z,4.75
2023-03-20T13:21:30.191Z,4.65
2023-03-20T13:24:06.887Z,5.25
2023-03-20T13:26:39.994Z,7.80
2023-03-20T13:29:17.062Z,5.28
2023-03-20T13:31:54.291Z,4.68
2023-03-20T13:34:32.098Z,5.22
2023-03-20T13:37:26.379Z,4.30
2023-03-20T13:40:05.737Z,6.18
2023-03-20T13:42:39.757Z,6.43
2023-03-20T13:45:31.380Z,5.43
2023-03-20T13:48:04.514Z,6.25
2023-03-20T13:50:44.048Z,5.07
2023-03-20T13:53:25.828Z,5.40
2023-03-20T13:55:59.286Z,4.30
2023-03-20T13:58:56.362Z,6.72
2023-03-20T14:01:36.308Z,3.72
2023-03-20T14:04:05.994Z,3.70
2023-03-20T14:06:54.453Z,4.10
2023-03-20T14:09:31.371Z,5.28
2023-03-20T14:12:03.809Z,4.95
2023-03-20T14:14:33.942Z,4.50
2023-03-20T14:17:09.006Z,6.07
2023-03-20T14:19:39.136Z,5.70
2023-03-20T14:22:08.091Z,4.93
2023-03-20T14:24:38.237Z,5.30
2023-03-20T14:27:06.770Z,11.77
2023-03-20T14:29:39.619Z,7.68
2023-03-20T14:32:35.650Z,7.13
2023-03-20T14:35:24.112Z,5.63
2023-03-20T14:38:16.905Z,4.63
2023-03-20T14:40:54.755Z,7.00
2023-03-20T14:43:39.901Z,4.50
2023-03-20T14:46:16.962Z,4.25
2023-03-20T14:48:49.677Z,4.57
2023-03-20T14:51:29.784Z,5.45
2023-03-20T14:53:58.760Z,5.03
2023-03-20T14:56:30.304Z,4.43
2023-03-20T14:59:02.509Z,4.20
2023-03-20T15:01:48.978Z,4.10
2023-03-20T15:04:30.107Z,3.80
2023-03-20T15:07:01.804Z,4.38
2023-03-20T15:09:33.082Z,4.95
2023-03-20T15:12:04.484Z,3.47
2023-03-20T15:14:41.844Z,3.50
2023-03-20T15:17:18.684Z,3.80
2023-03-20T15:19:50.498Z,4.10
2023-03-20T15:22:20.526Z,4.15
2023-03-20T15:24:56.108Z,4.40
2023-03-20T15:27:29.473Z,5.90
2023-03-20T15:29:58.600Z,4.53
2023-03-20T15:32:26.798Z,4.75
2023-03-20T15:34:56.744Z,4.55
2023-03-20T15:37:26.450Z,4.03
2023-03-20T15:39:56.967Z,4.25
2023-03-20T15:42:27.771Z,4.13
2023-03-20T15:44:56.859Z,4.88
2023-03-20T15:47:26.743Z,4.60
2023-03-20T15:49:58.207Z,5.60
2023-03-20T15:52:31.807Z,5.90
2023-03-20T15:55:03.652Z,9.32
2023-03-20T15:57:35.812Z,10.57
2023-03-20T16:00:06.333Z,12.10
2023-03-20T16:02:36.030Z,11.73
2023-03-20T16:05:10.528Z,14.32
2023-03-20T16:07:38.479Z,11.18
2023-03-20T16:10:17.776Z,9.27
2023-03-20T16:12:49.549Z,11.68
2023-03-20T16:15:18.632Z,12.20
2023-03-20T16:17:47.811Z,12.98
2023-03-20T16:20:20.048Z,12.13
2023-03-20T16:22:52.594Z,12.57
2023-03-20T16:25:22.324Z,11.82
2023-03-20T16:27:52.889Z,13.57
2023-03-20T16:30:25.318Z,11.52
2023-03-20T16:32:59.766Z,11.35
2023-03-20T16:35:38.099Z,12.20
2023-03-20T16:38:17.378Z,10.50
2023-03-20T16:40:45.466Z,12.17
2023-03-20T16:43:17.132Z,13.17
2023-03-20T16:45:46.672Z,11.97
2023-03-20T16:48:36.126Z,10.93
2023-03-20T16:51:17.581Z,11.87
2023-03-20T16:53:47.986Z,11.83
2023-03-20T16:56:18.763Z,12.50
2023-03-20T16:58:47.203Z,11.63
2023-03-20T17:01:21.696Z,16.13
2023-03-20T17:03:53.675Z,16.40
2023-03-20T17:06:45.510Z,16.03
2023-03-20T17:09:26.848Z,12.10
2023-03-20T17:12:02.516Z,20.83
2023-03-20T17:14:30.684Z,15.53
2023-03-20T17:17:00.386Z,16.33
2023-03-20T17:19:28.362Z,18.43
2023-03-20T17:21:59.835Z,13.23
2023-03-20T17:24:27.822Z,12.83
2023-03-20T17:26:57.765Z,19.30
2023-03-20T17:29:25.739Z,16.90
2023-03-20T17:31:53.669Z,15.37
2023-03-20T17:34:21.577Z,15.13
2023-03-20T17:37:03.344Z,16.53
2023-03-20T17:39:32.857Z,13.40
2023-03-20T17:42:00.759Z,13.83
2023-03-20T17:44:28.899Z,12.83
2023-03-20T17:46:59.092Z,14.77
2023-03-20T17:49:28.312Z,15.63
2023-03-20T17:51:56.605Z,15.47
2023-03-20T17:54:24.561Z,12.70
2023-03-20T17:56:53.854Z,11.63
2023-03-20T17:59:21.815Z,11.43
2023-03-20T18:01:49.803Z,12.83
2023-03-20T18:04:19.842Z,24.73
2023-03-20T18:06:49.116Z,27.77
2023-03-20T18:09:17.460Z,27.40
2023-03-20T18:11:45.423Z,30.43
2023-03-20T18:14:18.022Z,35.57
2023-03-20T18:16:46.555Z,28.93
2023-03-20T18:19:25.785Z,34.40
2023-03-20T18:21:53.859Z,28.37
2023-03-20T18:24:22.129Z,29.93
2023-03-20T18:26:53.050Z,30.03
2023-03-20T18:29:22.412Z,21.73
2023-03-20T18:31:50.583Z,19.73
2023-03-20T18:34:21.269Z,18.17
2023-03-20T18:36:51.640Z,19.77
2023-03-20T18:39:20.761Z,15.67
2023-03-20T18:41:48.855Z,12.50
2023-03-20T18:44:17.673Z,17.43
2023-03-20T18:46:47.211Z,18.60
2023-03-20T18:49:17.256Z,16.47
2023-03-20T18:51:45.883Z,15.23
2023-03-20T18:54:13.956Z,14.97
2023-03-20T18:56:43.068Z,16.70
2023-03-20T18:59:13.810Z,18.17
2023-03-20T19:01:42.559Z,19.20
2023-03-20T19:04:12.055Z,18.53
2023-03-20T19:06:40.102Z,21.93
2023-03-20T19:09:09.984Z,23.60
2023-03-20T19:11:37.921Z,24.37
2023-03-20T19:14:05.785Z,22.77
2023-03-20T19:16:37.868Z,24.97
2023-03-20T19:19:08.827Z,22.10
2023-03-20T19:21:38.062Z,18.13
2023-03-20T19:24:07.703Z,18.63
2023-03-20T19:26:37.801Z,20.13
2023-03-20T19:29:09.596Z,18.83
2023-03-20T19:31:37.739Z,18.13
2023-03-20T19:34:06.795Z,19.40
2023-03-20T19:36:38.337Z,21.73
2023-03-20T19:39:08.623Z,22.13
2023-03-20T19:41:36.641Z,17.17
2023-03-20T19:44:06.593Z,18.17
2023-03-20T19:46:42.773Z,14.60
2023-03-20T19:49:18.625Z,15.93
2023-03-20T19:51:51.429Z,15.43
2023-03-20T19:54:20.889Z,14.20
2023-03-20T19:56:49.358Z,13.37
2023-03-20T19:59:17.412Z,12.10
2023-03-20T20:01:46.849Z,12.20
2023-03-20T20:04:16.238Z,14.67
2023-03-20T20:06:47.193Z,13.00
2023-03-20T20:09:24.026Z,12.40
2023-03-20T20:11:52.457Z,12.33
2023-03-20T20:14:26.431Z,14.03
2023-03-20T20:17:07.992Z,17.07
2023-03-20T20:19:49.501Z,21.87
2023-03-20T20:22:26.031Z,17.27
2023-03-20T20:24:56.334Z,22.67
2023-03-20T20:27:24.315Z,26.87
2023-03-20T20:29:57.488Z,21.90
2023-03-20T20:32:36.483Z,22.83
2023-03-20T20:35:41.837Z,24.10
2023-03-20T20:38:36.722Z,22.93
2023-03-20T20:40:46.729Z,33.03
2023-03-20T20:43:39.075Z,32.43
2023-03-20T20:46:03.121Z,30.43
2023-03-20T20:48:33.359Z,30.53
2023-03-20T20:51:04.473Z,28.00
2023-03-20T20:53:32.529Z,25.23
2023-03-20T20:56:01.854Z,23.40
2023-03-20T20:58:29.728Z,24.97
2023-03-20T21:00:58.488Z,21.10
2023-03-20T21:03:26.515Z,19.47
2023-03-20T21:05:54.394Z,17.37
2023-03-20T21:08:22.312Z,17.17
2023-03-20T21:10:50.945Z,15.50
2023-03-20T21:13:20.295Z,14.93
2023-03-20T21:15:48.481Z,12.67
2023-03-20T21:18:16.312Z,14.33
2023-03-20T21:20:44.185Z,13.90
2023-03-20T21:23:12.265Z,13.93
2023-03-20T21:25:44.669Z,15.43
2023-03-20T21:28:14.569Z,14.77
2023-03-20T21:31:04.218Z,12.97
2023-03-20T21:33:33.300Z,15.87
2023-03-20T21:36:01.326Z,14.00
2023-03-20T21:39:02.009Z,14.90
2023-03-20T21:41:17.555Z,14.77
2023-03-20T21:43:47.322Z,17.30
2023-03-20T21:49:55.523Z,15.37
2023-03-20T21:55:13.277Z,11.47
2023-03-20T22:03:18.362Z,11.07
2023-03-20T22:15:11.972Z,14.43
2023-03-20T22:23:43.293Z,15.50
2023-03-20T22:26:23.906Z,14.77
2023-03-20T22:29:21.192Z,15.53
2023-03-20T22:37:40.805Z,14.77
2023-03-20T22:40:29.186Z,15.47
2023-03-20T22:42:54.034Z,18.47
2023-03-20T22:47:49.124Z,18.37
2023-03-20T22:50:17.537Z,18.87
2023-03-20T22:52:49.400Z,16.33
2023-03-20T22:55:18.542Z,14.97
2023-03-20T22:58:03.966Z,14.87
2023-03-20T23:00:34.840Z,14.23
2023-03-20T23:03:17.255Z,14.17
2023-03-20T23:05:51.557Z,13.63
2023-03-20T23:08:21.300Z,12.20
2023-03-20T23:10:51.258Z,12.53
2023-03-20T23:13:22.382Z,13.97
2023-03-20T23:15:51.618Z,14.53
2023-03-20T23:18:19.506Z,13.60
2023-03-20T23:20:47.423Z,14.30
2023-03-20T23:23:17.782Z,14.23
2023-03-20T23:25:47.256Z,13.80
2023-03-20T23:28:15.237Z,13.70
2023-03-20T23:30:49.881Z,14.30
2023-03-20T23:33:24.588Z,12.70
2023-03-20T23:36:01.310Z,11.93
2023-03-20T23:38:37.062Z,10.17
2023-03-20T23:41:06.998Z,8.70
2023-03-20T23:43:34.886Z,9.43
2023-03-20T23:46:02.853Z,9.83
2023-03-20T23:48:30.833Z,9.83
2023-03-20T23:50:58.963Z,10.97
2023-03-20T23:53:27.224Z,11.20
2023-03-20T23:55:57.478Z,9.90
2023-03-20T23:58:28.491Z,9.77
